Time;durP1;ratioP1;P1;durP2;ratioP2;P2;SDS_P1;SDS_P2;PMS_P1;PMS_P2;Temp;Humidity;BMP_temperature;BMP_pressure;BME280_temperature;BME280_humidity;BME280_pressure;Samples;Min_cycle;Max_cycle;Signal;HPM_P1;HPM_P2
2023/08/14 00:01:16;;;;;;;;;;;;;;;18.13;82.52;95537.03;5137677;27;1032;-53
2023/08/14 00:03:42;;;;;;;;;;;;;;;18.14;81.72;95529.78;5137610;27;1024;-54
2023/08/14 00:06:08;;;;;;;;;;;;;;;18.29;80.79;95537.78;5137832;27;1031;-54
2023/08/14 00:08:34;;;;;;;;;;;;;;;18.28;81.08;95538.81;5137742;27;985;-54
2023/08/14 00:11:00;;;;;;;;;;;;;;;18.34;80.98;95538.00;5137673;27;1038;-54
2023/08/14 00:13:26;;;;;;;;;;;;;;;18.46;79.41;95543.72;5137534;27;1003;-55
2023/08/14 00:15:52;;;;;;;;;;;;;;;18.03;80.24;95541.16;5137510;27;976;-54
2023/08/14 00:18:18;;;;;;;;;;;;;;;17.98;81.89;95541.75;5137521;27;1897;-54
2023/08/14 00:20:44;;;;;;;;;;;;;;;18.10;81.02;95528.53;5121531;27;1555;-54
2023/08/14 00:23:10;;;;;;;;;;;;;;;18.12;81.25;95532.69;5116863;28;1021;-54
2023/08/14 00:25:36;;;;;;;;;;;;;;;17.95;82.42;95534.88;5116849;28;962;-54
2023/08/14 00:28:02;;;;;;;;;;;;;;;18.20;81.01;95541.69;5116606;28;1033;-53
2023/08/14 00:30:28;;;;;;;;;;;;;;;18.39;79.46;95532.84;5116803;28;992;-54
2023/08/14 00:32:54;;;;;;;;;;;;;;;18.21;80.31;95536.09;5115926;28;2876;-54
2023/08/14 00:35:20;;;;;;;;;;;;;;;18.32;79.52;95531.97;5116182;28;2868;-54
2023/08/14 00:37:47;;;;;;;;;;;;;;;18.39;79.95;95527.41;5127156;27;1079;-54
2023/08/14 00:40:14;;;;;;;;;;;;;;;18.44;79.64;95535.78;5136944;27;1998;-54
2023/08/14 00:42:42;;;;;;;;;;;;;;;18.52;80.88;95526.66;5137305;27;961;-54
2023/08/14 00:45:08;;;;;;;;;;;;;;;18.39;80.88;95530.13;5136902;27;921;-54
2023/08/14 00:47:35;;;;;;;;;;;;;;;18.18;80.82;95532.94;5137007;27;1043;-54
2023/08/14 00:50:04;;;;;;;;;;;;;;;17.93;83.61;95528.00;5137007;27;1067;-54
2023/08/14 00:52:32;;;;;;;;;;;;;;;17.84;82.16;95529.13;5135761;27;2971;-54
2023/08/14 00:55:08;;;;;;;;;;;;;;;18.07;81.92;95534.31;5136676;27;1082;-54
2023/08/14 00:57:34;;;;;;;;;;;;;;;18.27;81.38;95534.44;5136903;27;973;-54
2023/08/14 01:00:06;;;;;;;;;;;;;;;18.35;82.19;95528.88;5125261;27;2417;-54
2023/08/14 01:02:33;;;;;;;;;;;;;;;18.48;82.06;95520.81;5115913;28;973;-54
2023/08/14 01:04:59;;;;;;;;;;;;;;;18.24;85.45;95529.44;5116194;28;1064;-54
2023/08/14 01:07:25;;;;;;;;;;;;;;;17.96;82.26;95527.56;5115800;28;1060;-55
2023/08/14 01:09:51;;;;;;;;;;;;;;;18.02;83.36;95524.09;5115957;28;976;-54
2023/08/14 01:12:30;;;;;;;;;;;;;;;18.21;82.14;95527.09;5115627;28;1020;-55
2023/08/14 01:15:01;;;;;;;;;;;;;;;18.27;81.90;95521.75;5115779;28;999;-54
2023/08/14 01:17:30;;;;;;;;;;;;;;;18.25;82.93;95521.09;5115843;28;1100;-55
2023/08/14 01:19:57;;;;;;;;;;;;;;;18.32;82.94;95531.97;5124279;27;1992;-55
2023/08/14 01:22:25;;;;;;;;;;;;;;;18.42;81.99;95526.19;5136185;27;1204;-55
2023/08/14 01:24:55;;;;;;;;;;;;;;;18.21;83.10;95525.25;5136185;27;968;-55
2023/08/14 01:27:22;;;;;;;;;;;;;;;18.18;82.14;95527.53;5135997;27;995;-55
2023/08/14 01:29:58;;;;;;;;;;;;;;;18.14;82.17;95530.63;5136217;27;1048;-55
2023/08/14 01:32:24;;;;;;;;;;;;;;;18.03;81.83;95530.34;5136163;27;1032;-55
2023/08/14 01:34:51;;;;;;;;;;;;;;;18.03;82.85;95523.06;5135899;27;1032;-55
2023/08/14 01:37:19;;;;;;;;;;;;;;;18.03;82.31;95522.22;5135702;27;1218;-55
2023/08/14 01:39:53;;;;;;;;;;;;;;;17.82;82.71;95529.34;5135715;27;1917;-55
2023/08/14 01:42:28;;;;;;;;;;;;;;;17.88;82.57;95525.88;5143619;27;2489;-54
2023/08/14 01:44:59;;;;;;;;;;;;;;;17.99;82.85;95527.19;5156386;27;1063;-55
2023/08/14 01:47:28;;;;;;;;;;;;;;;17.85;82.88;95523.56;5156558;27;957;-55
2023/08/14 01:49:55;;;;;;;;;;;;;;;17.77;83.47;95523.66;5156540;27;1059;-55
2023/08/14 01:52:21;;;;;;;;;;;;;;;17.65;83.62;95526.09;5156166;27;964;-55
2023/08/14 01:54:47;;;;;;;;;;;;;;;17.46;86.07;95534.88;5142815;27;2486;-55
2023/08/14 01:57:13;;;;;;;;;;;;;;;17.69;82.40;95529.22;5135527;27;1012;-55
2023/08/14 01:59:43;;;;;;;;;;;;;;;18.04;80.05;95529.28;5135306;27;1995;-55
2023/08/14 02:02:10;;;;;;;;;;;;;;;18.16;79.58;95525.00;5135621;27;968;-55
2023/08/14 02:04:36;;;;;;;;;;;;;;;18.03;81.09;95522.22;5135178;27;1099;-54
2023/08/14 02:07:02;;;;;;;;;;;;;;;17.60;83.27;95525.00;5135521;27;1177;-55
2023/08/14 02:09:28;;;;;;;;;;;;;;;17.16;85.47;95526.91;5135372;27;1261;-55
2023/08/14 02:11:54;;;;;;;;;;;;;;;17.34;84.25;95530.00;5135226;27;1048;-55
2023/08/14 02:14:20;;;;;;;;;;;;;;;17.37;83.01;95532.28;5135294;27;973;-55
2023/08/14 02:16:46;;;;;;;;;;;;;;;17.35;84.63;95534.34;5135155;27;1191;-54
2023/08/14 02:19:12;;;;;;;;;;;;;;;17.50;83.79;95528.88;5134884;27;1910;-55
2023/08/14 02:21:37;;;;;;;;;;;;;;;17.45;84.69;95539.41;5135198;27;1015;-55
2023/08/14 02:24:04;;;;;;;;;;;;;;;17.07;86.54;95533.44;5135184;27;1049;-55
2023/08/14 02:26:30;;;;;;;;;;;;;;;17.26;85.30;95538.19;5134988;27;1027;-55
2023/08/14 02:28:57;;;;;;;;;;;;;;;17.40;84.18;95530.25;5134845;27;1111;-55
2023/08/14 02:31:22;;;;;;;;;;;;;;;16.96;86.73;95534.81;5135011;27;972;-55
2023/08/14 02:33:48;;;;;;;;;;;;;;;16.86;86.52;95540.50;5134900;27;1041;-55
2023/08/14 02:36:14;;;;;;;;;;;;;;;17.15;85.96;95542.28;5135017;27;1004;-55
2023/08/14 02:38:40;;;;;;;;;;;;;;;17.10;86.01;95533.06;5134522;27;2001;-54
2023/08/14 02:41:06;;;;;;;;;;;;;;;17.01;87.33;95539.63;5134978;27;1192;-55
2023/08/14 02:43:33;;;;;;;;;;;;;;;16.95;87.38;95527.72;5134535;27;2057;-55
2023/08/14 02:45:59;;;;;;;;;;;;;;;16.96;88.02;95541.03;5134907;27;1056;-55
2023/08/14 02:48:25;;;;;;;;;;;;;;;16.84;88.11;95539.84;5134660;27;1318;-55
2023/08/14 02:50:51;;;;;;;;;;;;;;;16.91;88.13;95537.25;5134829;27;1000;-55
2023/08/14 02:53:17;;;;;;;;;;;;;;;16.92;88.39;95537.06;5134688;27;956;-55
2023/08/14 02:55:48;;;;;;;;;;;;;;;17.10;87.55;95527.69;5134813;27;1122;-54
2023/08/14 02:58:14;;;;;;;;;;;;;;;17.07;86.64;95525.34;5134572;27;954;-55
2023/08/14 03:00:40;;;;;;;;;;;;;;;16.90;86.55;95525.59;5137877;27;2527;-55
2023/08/14 03:03:06;;;;;;;;;;;;;;;16.61;88.21;95517.53;5155023;27;1047;-54
2023/08/14 03:05:33;;;;;;;;;;;;;;;16.50;89.36;95530.50;5155088;27;979;-55
2023/08/14 03:07:59;;;;;;;;;;;;;;;16.70;88.15;95521.81;5155300;27;968;-55
2023/08/14 03:10:25;;;;;;;;;;;;;;;16.71;89.12;95524.31;5155223;27;1040;-55
2023/08/14 03:12:51;;;;;;;;;;;;;;;16.35;88.47;95526.97;5155349;27;1047;-55
2023/08/14 03:15:17;;;;;;;;;;;;;;;16.09;90.11;95531.00;5154980;27;1003;-55
2023/08/14 03:17:43;;;;;;;;;;;;;;;16.42;88.49;95521.69;5155059;27;1023;-55
2023/08/14 03:20:09;;;;;;;;;;;;;;;16.54;88.31;95526.41;5144551;27;1906;-55
2023/08/14 03:22:35;;;;;;;;;;;;;;;16.66;88.30;95525.94;5134680;27;969;-55
2023/08/14 03:25:01;;;;;;;;;;;;;;;16.29;89.03;95527.72;5138644;27;973;-54
2023/08/14 03:27:27;;;;;;;;;;;;;;;16.15;88.80;95535.66;5137958;27;2814;-55
2023/08/14 03:29:53;;;;;;;;;;;;;;;16.47;87.96;95532.75;5118694;27;2959;-55
2023/08/14 03:32:19;;;;;;;;;;;;;;;16.70;86.29;95538.00;5117628;28;960;-55
2023/08/14 03:34:45;;;;;;;;;;;;;;;16.81;86.72;95533.97;5117710;28;1044;-55
2023/08/14 03:37:11;;;;;;;;;;;;;;;16.92;86.75;95526.25;5117308;28;1077;-55
2023/08/14 03:39:37;;;;;;;;;;;;;;;16.80;87.31;95533.13;5117464;28;1902;-55
2023/08/14 03:42:03;;;;;;;;;;;;;;;16.90;86.44;95524.75;5117841;28;985;-54
2023/08/14 03:44:29;;;;;;;;;;;;;;;17.23;82.85;95533.22;5117647;28;952;-55
2023/08/14 03:46:55;;;;;;;;;;;;;;;17.50;82.86;95533.44;5117721;28;1041;-55
2023/08/14 03:49:21;;;;;;;;;;;;;;;17.14;84.96;95534.34;5117408;28;980;-55
2023/08/14 03:51:47;;;;;;;;;;;;;;;16.64;85.56;95536.03;5117540;28;989;-54
2023/08/14 03:54:13;;;;;;;;;;;;;;;16.86;85.53;95537.78;5117464;28;953;-54
2023/08/14 03:56:39;;;;;;;;;;;;;;;17.02;84.83;95544.00;5117243;28;1040;-54
2023/08/14 03:59:05;;;;;;;;;;;;;;;17.11;85.23;95545.53;5117118;28;1914;-54
2023/08/14 04:01:32;;;;;;;;;;;;;;;17.22;84.36;95549.59;5117115;28;1011;-54
2023/08/14 04:03:58;;;;;;;;;;;;;;;17.37;83.90;95540.38;5117249;28;1079;-54
2023/08/14 04:06:24;;;;;;;;;;;;;;;17.53;82.66;95539.31;5116984;28;1092;-54
2023/08/14 04:08:50;;;;;;;;;;;;;;;17.54;83.07;95546.38;5117009;28;1008;-53
2023/08/14 04:11:16;;;;;;;;;;;;;;;17.24;84.32;95545.66;5116907;28;1040;-56
2023/08/14 04:13:42;;;;;;;;;;;;;;;17.18;83.71;95541.03;5099007;28;953;-56
2023/08/14 04:16:08;;;;;;;;;;;;;;;17.27;83.38;95539.06;5116944;28;1020;-55
2023/08/14 04:18:34;;;;;;;;;;;;;;;17.60;82.17;95541.22;5117038;28;1905;-56
2023/08/14 04:21:00;;;;;;;;;;;;;;;17.70;81.90;95547.13;5116180;27;1574;-55
2023/08/14 04:23:28;;;;;;;;;;;;;;;17.82;83.58;95552.84;5137264;27;1089;-57
2023/08/14 04:25:54;;;;;;;;;;;;;;;17.65;82.75;95549.59;5119257;27;1548;-57
2023/08/14 04:28:20;;;;;;;;;;;;;;;17.77;82.30;95550.72;5118132;27;2534;-56
2023/08/14 04:30:46;;;;;;;;;;;;;;;17.72;85.82;95553.19;5137468;27;1129;-57
2023/08/14 04:33:12;;;;;;;;;;;;;;;17.69;83.91;95549.00;5119138;27;972;-55
2023/08/14 04:35:38;;;;;;;;;;;;;;;18.00;81.83;95550.50;5117583;27;1028;-55
2023/08/14 04:38:04;;;;;;;;;;;;;;;18.20;83.10;95555.22;5118781;27;1130;-56
2023/08/14 04:40:31;;;;;;;;;;;;;;;18.60;79.66;95566.25;5136817;27;1937;-56
2023/08/14 04:42:57;;;;;;;;;;;;;;;18.75;78.46;95566.97;5119060;27;1075;-57
2023/08/14 04:45:24;;;;;;;;;;;;;;;19.06;75.19;95560.22;5118862;27;1681;-57
2023/08/14 04:47:50;;;;;;;;;;;;;;;19.41;72.59;95562.81;5118998;27;1031;-56
2023/08/14 04:50:16;;;;;;;;;;;;;;;19.67;72.74;95568.25;5136926;27;1586;-56
2023/08/14 04:52:42;;;;;;;;;;;;;;;19.95;71.43;95569.94;5118813;27;1055;-55
2023/08/14 04:55:08;;;;;;;;;;;;;;;20.12;73.50;95575.78;5136969;27;977;-56
2023/08/14 04:57:34;;;;;;;;;;;;;;;20.33;70.53;95566.56;5136569;27;1024;-56
2023/08/14 05:00:00;;;;;;;;;;;;;;;20.44;68.98;95563.19;5118398;27;1990;-55
2023/08/14 05:02:28;;;;;;;;;;;;;;;20.56;70.23;95576.13;5118356;27;1815;-56
2023/08/14 05:04:54;;;;;;;;;;;;;;;20.66;66.75;95571.13;5118467;27;1451;-55
2023/08/14 05:07:20;;;;;;;;;;;;;;;20.84;66.30;95567.69;5136429;27;1099;-55
2023/08/14 05:09:48;;;;;;;;;;;;;;;20.99;65.30;95560.09;5136426;27;979;-56
2023/08/14 05:12:14;;;;;;;;;;;;;;;21.10;66.13;95577.63;5136291;27;1024;-56
2023/08/14 05:14:40;;;;;;;;;;;;;;;21.18;63.53;95574.66;5136563;27;2030;-56
2023/08/14 05:17:06;;;;;;;;;;;;;;;21.29;63.17;95569.59;5136405;27;960;-56
2023/08/14 05:19:32;;;;;;;;;;;;;;;21.40;62.80;95572.44;5135997;27;1901;-55
2023/08/14 05:21:58;;;;;;;;;;;;;;;21.59;62.80;95567.97;5118255;27;995;-56
2023/08/14 05:24:24;;;;;;;;;;;;;;;21.66;61.03;95575.25;5136407;27;965;-56
2023/08/14 05:26:50;;;;;;;;;;;;;;;21.81;62.74;95578.47;5136378;27;1044;-55
2023/08/14 05:29:16;;;;;;;;;;;;;;;21.92;61.38;95580.47;5136129;27;1035;-56
2023/08/14 05:31:42;;;;;;;;;;;;;;;22.05;63.09;95586.88;5136316;27;987;-55
2023/08/14 05:34:09;;;;;;;;;;;;;;;22.20;59.67;95574.59;5135993;27;1029;-56
2023/08/14 05:36:35;;;;;;;;;;;;;;;22.31;59.79;95583.97;5136030;27;1233;-56
2023/08/14 05:39:02;;;;;;;;;;;;;;;22.36;59.36;95578.66;5117786;27;2001;-56
2023/08/14 05:41:49;;;;;;;;;;;;;;;22.52;59.96;95576.38;5135803;27;1540;-55
2023/08/14 05:44:34;;;;;;;;;;;;;;;22.59;58.98;95577.16;5135929;27;1473;-56
2023/08/14 05:47:20;;;;;;;;;;;;;;;22.76;61.08;95571.94;5135510;27;2024;-56
2023/08/14 05:50:05;;;;;;;;;;;;;;;22.99;59.11;95568.53;5135927;27;2019;-56
2023/08/14 05:52:51;;;;;;;;;;;;;;;23.08;57.55;95577.25;5135548;27;1548;-55
2023/08/14 05:57:48;;;;;;;;;;;;;;;23.27;58.75;95580.78;5117588;27;1313737;-55
2023/08/14 06:00:35;;;;;;;;;;;;;;;23.37;58.43;95584.66;5152394;27;2013;-55
2023/08/14 06:03:21;;;;;;;;;;;;;;;23.44;55.71;95581.81;5152632;27;1952;-55
2023/08/14 06:06:06;;;;;;;;;;;;;;;23.48;55.88;95579.47;5152651;27;2141;-55
2023/08/14 06:08:51;;;;;;;;;;;;;;;23.59;55.61;95595.03;5152337;27;2083;-55
2023/08/14 06:11:37;;;;;;;;;;;;;;;23.64;54.44;95583.41;5152459;27;1540;-55
2023/08/14 06:14:22;;;;;;;;;;;;;;;23.80;55.46;95574.59;5152507;27;1536;-56
2023/08/14 06:17:09;;;;;;;;;;;;;;;24.04;54.43;95580.13;5152194;27;2202;-56
2023/08/14 06:19:54;;;;;;;;;;;;;;;24.16;53.45;95573.59;5152386;27;2175;-55
2023/08/14 06:22:20;;;;;;;;;;;;;;;24.25;54.35;95582.28;5152267;27;1045;-56
2023/08/14 06:24:46;;;;;;;;;;;;;;;24.34;54.65;95569.09;5152369;27;1039;-55
2023/08/14 06:27:12;;;;;;;;;;;;;;;24.32;52.58;95583.00;5152272;27;1193;-55
2023/08/14 06:29:38;;;;;;;;;;;;;;;24.24;51.93;95585.22;5151894;27;979;-55
2023/08/14 06:32:05;;;;;;;;;;;;;;;24.33;51.55;95575.63;5151871;27;1093;-55
2023/08/14 06:34:31;;;;;;;;;;;;;;;24.35;50.75;95581.69;5151558;27;1109;-55
2023/08/14 06:36:57;;;;;;;;;;;;;;;24.53;52.59;95580.78;5132823;27;2420;-55
2023/08/14 06:39:23;;;;;;;;;;;;;;;24.61;52.44;95577.66;5131160;27;1072;-55
2023/08/14 06:41:49;;;;;;;;;;;;;;;24.75;52.77;95583.72;5131114;27;1044;-55
2023/08/14 06:44:15;;;;;;;;;;;;;;;24.93;50.75;95593.69;5138404;27;2525;-55
2023/08/14 06:46:41;;;;;;;;;;;;;;;25.07;50.22;95584.13;5151744;27;976;-55
2023/08/14 06:49:10;;;;;;;;;;;;;;;25.07;50.05;95586.84;5151434;27;980;-55
2023/08/14 06:51:36;;;;;;;;;;;;;;;25.06;49.44;95587.94;5151738;27;1095;-55
2023/08/14 06:54:02;;;;;;;;;;;;;;;25.14;49.84;95587.56;5151703;27;1085;-55
2023/08/14 06:56:28;;;;;;;;;;;;;;;25.38;53.98;95590.22;5151077;27;1982;-56
2023/08/14 06:58:54;;;;;;;;;;;;;;;25.38;48.46;95603.91;5151355;27;1008;-55
2023/08/14 07:01:20;;;;;;;;;;;;;;;25.37;47.89;95588.59;5151147;27;1036;-55
2023/08/14 07:03:45;;;;;;;;;;;;;;;25.45;47.69;95593.66;5151557;27;947;-56
2023/08/14 07:06:11;;;;;;;;;;;;;;;25.40;47.64;95599.06;5151134;27;1545;-56
2023/08/14 07:08:38;;;;;;;;;;;;;;;25.57;48.87;95596.34;5140769;27;1161;-55
2023/08/14 07:11:04;;;;;;;;;;;;;;;25.85;48.38;95592.75;5137582;27;1015;-55
2023/08/14 07:13:29;;;;;;;;;;;;;;;25.95;46.06;95588.56;5137420;27;1039;-56
2023/08/14 07:15:55;;;;;;;;;;;;;;;26.03;49.64;95580.78;5137210;27;1906;-56
2023/08/14 07:18:21;;;;;;;;;;;;;;;26.09;47.50;95592.66;5137170;27;1039;-55
2023/08/14 07:20:48;;;;;;;;;;;;;;;26.24;47.70;95592.91;5137371;27;1598;-56
2023/08/14 07:23:17;;;;;;;;;;;;;;;26.35;46.12;95593.91;5136985;27;1007;-55
2023/08/14 07:25:44;;;;;;;;;;;;;;;26.47;47.39;95586.41;5120448;27;2817;-56
2023/08/14 07:28:10;;;;;;;;;;;;;;;26.57;46.17;95593.97;5116549;28;1060;-55
2023/08/14 07:30:37;;;;;;;;;;;;;;;26.62;47.44;95582.28;5116671;28;1068;-55
2023/08/14 07:33:03;;;;;;;;;;;;;;;26.70;45.17;95598.31;5116424;28;1029;-55
2023/08/14 07:35:29;;;;;;;;;;;;;;;26.76;44.82;95593.72;5116139;27;1988;-55
2023/08/14 07:37:55;;;;;;;;;;;;;;;26.68;44.01;95590.31;5116589;28;1003;-55
2023/08/14 07:40:21;;;;;;;;;;;;;;;26.56;44.47;95589.56;5116091;28;1091;-55
2023/08/14 07:42:48;;;;;;;;;;;;;;;26.66;46.48;95580.69;5116138;28;1020;-55
2023/08/14 07:45:14;;;;;;;;;;;;;;;26.85;46.12;95587.53;5116003;28;1171;-56
2023/08/14 07:47:40;;;;;;;;;;;;;;;26.94;43.63;95596.19;5116069;28;1036;-56
2023/08/14 07:50:06;;;;;;;;;;;;;;;27.02;44.64;95592.16;5115978;28;1035;-55
2023/08/14 07:52:34;;;;;;;;;;;;;;;27.21;47.14;95584.44;5116158;28;1215;-54
2023/08/14 07:55:00;;;;;;;;;;;;;;;27.23;43.58;95606.97;5116096;28;1053;-54
2023/08/14 07:57:26;;;;;;;;;;;;;;;26.92;45.52;95597.50;5115713;28;1905;-55
2023/08/14 07:59:52;;;;;;;;;;;;;;;26.43;46.09;95585.25;5115785;28;1102;-56
2023/08/14 08:02:19;;;;;;;;;;;;;;;26.12;45.22;95583.94;5115628;28;1079;-56
2023/08/14 08:04:46;;;;;;;;;;;;;;;26.13;46.80;95585.59;5132683;27;2857;-55
2023/08/14 08:07:12;;;;;;;;;;;;;;;26.44;46.45;95586.09;5135390;27;2824;-55
2023/08/14 08:09:38;;;;;;;;;;;;;;;26.44;45.61;95591.56;5136507;27;1052;-55
2023/08/14 08:12:04;;;;;;;;;;;;;;;26.49;47.27;95588.91;5136170;27;1186;-54
2023/08/14 08:14:30;;;;;;;;;;;;;;;26.80;46.26;95590.22;5135983;27;1027;-55
2023/08/14 08:16:56;;;;;;;;;;;;;;;27.06;44.61;95596.06;5136074;27;1917;-54
2023/08/14 08:19:22;;;;;;;;;;;;;;;27.21;43.67;95595.44;5134869;27;1385;-54
2023/08/14 08:21:48;;;;;;;;;;;;;;;27.41;42.75;95603.94;5136211;27;1036;-55
2023/08/14 08:24:14;;;;;;;;;;;;;;;27.56;43.79;95597.78;5136077;27;1169;-55
2023/08/14 08:26:40;;;;;;;;;;;;;;;27.70;41.93;95592.72;5135993;27;999;-55
2023/08/14 08:29:05;;;;;;;;;;;;;;;27.84;44.16;95593.97;5135902;27;1040;-55
2023/08/14 08:31:32;;;;;;;;;;;;;;;27.89;42.75;95592.38;5135645;27;1055;-55
2023/08/14 08:33:58;;;;;;;;;;;;;;;27.96;44.10;95582.84;5135653;27;1091;-55
2023/08/14 08:36:24;;;;;;;;;;;;;;;28.03;43.74;95580.72;5135775;27;1906;-55
2023/08/14 08:38:50;;;;;;;;;;;;;;;28.06;42.80;95578.53;5135873;27;1011;-55
2023/08/14 08:41:36;;;;;;;;;;;;;;;28.20;45.90;95571.50;5135337;27;1104;-54
2023/08/14 08:44:06;;;;;;;;;;;;;;;28.12;43.32;95572.81;5135188;27;1279;-55
2023/08/14 08:46:35;;;;;;;;;;;;;;;28.36;42.77;95575.19;5135261;27;1024;-55
2023/08/14 08:49:02;;;;;;;;;;;;;;;28.46;42.34;95571.69;5135336;27;1094;-55
2023/08/14 08:51:29;;;;;;;;;;;;;;;28.37;41.87;95574.13;5135251;27;1965;-55
2023/08/14 08:53:56;;;;;;;;;;;;;;;28.24;42.84;95569.88;5135621;27;1034;-55
2023/08/14 08:56:22;;;;;;;;;;;;;;;28.04;41.60;95576.06;5135390;27;1910;-55
2023/08/14 08:58:48;;;;;;;;;;;;;;;28.06;43.18;95560.13;5135034;27;1866;-55
2023/08/14 09:01:14;;;;;;;;;;;;;;;28.24;42.03;95570.72;5135022;27;1106;-55
2023/08/14 09:03:40;;;;;;;;;;;;;;;28.08;42.88;95555.22;5135352;27;992;-55
2023/08/14 09:06:06;;;;;;;;;;;;;;;28.17;42.25;95555.53;5135295;27;977;-55
2023/08/14 09:08:32;;;;;;;;;;;;;;;27.95;43.48;95553.72;5134969;27;1036;-56
2023/08/14 09:10:58;;;;;;;;;;;;;;;28.19;44.42;95545.09;5134998;27;1131;-55
2023/08/14 09:13:24;;;;;;;;;;;;;;;28.33;46.36;95540.00;5135115;27;961;-55
2023/08/14 09:15:51;;;;;;;;;;;;;;;28.15;46.27;95535.72;5134757;27;1917;-55
2023/08/14 09:18:17;;;;;;;;;;;;;;;28.30;43.18;95546.84;5135087;27;965;-55
2023/08/14 09:20:44;;;;;;;;;;;;;;;28.29;45.65;95541.63;5119825;27;1637;-56
2023/08/14 09:23:12;;;;;;;;;;;;;;;28.31;44.21;95536.69;5114301;28;1008;-55
2023/08/14 09:25:42;;;;;;;;;;;;;;;28.22;42.86;95544.59;5114350;28;968;-55
2023/08/14 09:28:08;;;;;;;;;;;;;;;28.31;43.63;95537.50;5114246;28;1001;-55
2023/08/14 09:30:35;;;;;;;;;;;;;;;28.18;40.25;95555.28;5113871;28;1355;-56
2023/08/14 09:33:03;;;;;;;;;;;;;;;28.54;41.80;95550.06;5114405;28;1002;-57
2023/08/14 09:35:29;;;;;;;;;;;;;;;28.81;41.70;95540.88;5114300;28;1048;-56
2023/08/14 09:37:55;;;;;;;;;;;;;;;28.98;42.80;95546.19;5114114;28;1906;-56
2023/08/14 09:40:21;;;;;;;;;;;;;;;28.66;42.98;95540.78;5114053;28;1041;-56
2023/08/14 09:42:48;;;;;;;;;;;;;;;28.45;41.99;95540.63;5113989;28;1175;-56
2023/08/14 09:45:15;;;;;;;;;;;;;;;28.22;41.91;95534.41;5113875;28;1015;-57
2023/08/14 09:47:42;;;;;;;;;;;;;;;27.99;41.38;95537.53;5113855;28;1067;-56
2023/08/14 09:50:08;;;;;;;;;;;;;;;27.87;40.85;95547.81;5114242;28;1118;-57
2023/08/14 09:52:34;;;;;;;;;;;;;;;27.81;41.04;95533.22;5114213;28;1036;-56
2023/08/14 09:55:01;;;;;;;;;;;;;;;27.85;41.97;95524.19;5114132;28;1043;-56
2023/08/14 09:57:27;;;;;;;;;;;;;;;27.81;41.46;95525.81;5113745;28;1993;-57
2023/08/14 09:59:53;;;;;;;;;;;;;;;27.85;42.33;95520.63;5114805;28;2499;-56
2023/08/14 10:02:22;;;;;;;;;;;;;;;27.93;40.89;95517.44;5134267;27;1098;-56
2023/08/14 10:04:48;;;;;;;;;;;;;;;27.97;40.90;95513.06;5134625;27;968;-56
2023/08/14 10:07:15;;;;;;;;;;;;;;;27.80;40.30;95510.41;5134213;27;1031;-56
2023/08/14 10:09:44;;;;;;;;;;;;;;;27.88;43.46;95500.84;5134273;27;1094;-56
2023/08/14 10:12:15;;;;;;;;;;;;;;;27.88;41.67;95497.28;5132289;27;2546;-56
2023/08/14 10:14:43;;;;;;;;;;;;;;;27.79;42.31;95496.94;5113951;28;973;-56
2023/08/14 10:17:12;;;;;;;;;;;;;;;28.13;42.04;95492.00;5115278;28;2552;-56
2023/08/14 10:19:40;;;;;;;;;;;;;;;28.49;42.67;95485.91;5119545;28;1248;-56
2023/08/14 10:22:07;;;;;;;;;;;;;;;28.68;42.93;95489.91;5134114;27;1032;-56
2023/08/14 10:24:37;;;;;;;;;;;;;;;28.56;42.50;95483.78;5134073;27;918;-55
2023/08/14 10:27:04;;;;;;;;;;;;;;;28.30;41.33;95483.59;5134121;27;984;-56
2023/08/14 10:29:31;;;;;;;;;;;;;;;28.54;41.29;95477.75;5133110;28;1463;-56
2023/08/14 10:31:58;;;;;;;;;;;;;;;28.78;42.16;95478.97;5133038;28;1126;-56
2023/08/14 10:34:25;;;;;;;;;;;;;;;28.58;39.73;95487.09;5133901;28;1086;-56
2023/08/14 10:36:52;;;;;;;;;;;;;;;28.52;41.53;95469.75;5134279;27;1994;-56
2023/08/14 10:39:18;;;;;;;;;;;;;;;28.75;40.79;95470.41;5133925;27;1051;-56
2023/08/14 10:41:44;;;;;;;;;;;;;;;28.94;41.84;95466.06;5133909;27;1036;-56
2023/08/14 10:44:11;;;;;;;;;;;;;;;28.93;40.75;95466.34;5137223;27;1000;-56
2023/08/14 10:46:41;;;;;;;;;;;;;;;28.86;40.64;95468.53;5137908;27;968;-56
2023/08/14 10:49:07;;;;;;;;;;;;;;;28.67;41.83;95465.44;5134102;27;2969;-56
2023/08/14 10:51:33;;;;;;;;;;;;;;;28.29;42.11;95459.16;5157789;27;1297;-57
2023/08/14 10:54:10;;;;;;;;;;;;;;;28.10;41.00;95464.25;5158376;27;1059;-56
2023/08/14 10:56:57;;;;;;;;;;;;;;;27.95;41.95;95452.03;5157160;27;1934;-56
2023/08/14 10:59:26;;;;;;;;;;;;;;;27.77;42.60;95453.22;5158598;27;1034;-56
2023/08/14 11:02:04;;;;;;;;;;;;;;;27.72;43.94;95453.22;5157988;27;1214;-56
2023/08/14 11:04:31;;;;;;;;;;;;;;;27.71;42.31;95445.22;5158242;27;1014;-56
2023/08/14 11:06:58;;;;;;;;;;;;;;;27.52;42.46;95437.38;5158185;27;1043;-56
2023/08/14 11:09:26;;;;;;;;;;;;;;;27.43;41.82;95445.28;5158387;27;983;-56
2023/08/14 11:11:54;;;;;;;;;;;;;;;27.40;43.73;95439.47;5156669;27;1063;-56
2023/08/14 11:14:20;;;;;;;;;;;;;;;27.47;43.33;95440.09;5158035;27;1029;-56
2023/08/14 11:16:49;;;;;;;;;;;;;;;27.48;43.24;95446.41;5156755;27;2007;-56
2023/08/14 11:19:17;;;;;;;;;;;;;;;27.64;42.07;95440.78;5155192;27;1352;-56
2023/08/14 11:21:48;;;;;;;;;;;;;;;27.78;42.74;95427.44;5136910;27;1074;-56
2023/08/14 11:24:14;;;;;;;;;;;;;;;27.82;43.12;95436.78;5137055;27;1027;-56
2023/08/14 11:26:40;;;;;;;;;;;;;;;27.81;45.07;95429.66;5137116;27;1551;-56
2023/08/14 11:29:06;;;;;;;;;;;;;;;27.84;41.64;95440.09;5137160;27;1037;-56
2023/08/14 11:31:32;;;;;;;;;;;;;;;28.15;41.40;95443.13;5136602;27;1019;-56
2023/08/14 11:33:59;;;;;;;;;;;;;;;28.44;41.16;95431.72;5136710;27;992;-55
2023/08/14 11:36:25;;;;;;;;;;;;;;;28.46;40.21;95434.19;5135604;27;2529;-56
2023/08/14 11:38:51;;;;;;;;;;;;;;;28.46;43.03;95426.78;5117495;27;2847;-56
2023/08/14 11:41:17;;;;;;;;;;;;;;;28.31;43.73;95423.97;5115867;28;961;-57
2023/08/14 11:43:45;;;;;;;;;;;;;;;28.18;44.04;95423.34;5116207;27;2503;-57
2023/08/14 11:46:11;;;;;;;;;;;;;;;28.15;43.12;95421.13;5125349;27;2515;-56
2023/08/14 11:48:40;;;;;;;;;;;;;;;28.09;44.05;95413.94;5135000;27;2498;-57
2023/08/14 11:51:07;;;;;;;;;;;;;;;28.07;43.81;95415.28;5136686;27;1031;-57
2023/08/14 11:53:33;;;;;;;;;;;;;;;27.99;44.74;95411.94;5136289;27;1103;-57
2023/08/14 11:55:59;;;;;;;;;;;;;;;27.96;44.97;95415.22;5136305;27;1988;-57
2023/08/14 11:58:25;;;;;;;;;;;;;;;27.91;45.28;95414.38;5136154;27;1091;-57
2023/08/14 12:00:52;;;;;;;;;;;;;;;28.06;42.88;95408.13;5135174;27;2561;-57
2023/08/14 12:03:18;;;;;;;;;;;;;;;28.12;42.05;95413.41;5136420;27;1014;-57
2023/08/14 12:05:47;;;;;;;;;;;;;;;28.34;43.39;95410.50;5136212;27;1047;-57
2023/08/14 12:08:14;;;;;;;;;;;;;;;28.65;45.30;95401.56;5136227;27;989;-57
2023/08/14 12:10:40;;;;;;;;;;;;;;;28.83;44.61;95397.53;5136125;27;1099;-57
2023/08/14 12:13:06;;;;;;;;;;;;;;;28.75;43.38;95412.63;5136156;27;1038;-56
2023/08/14 12:15:32;;;;;;;;;;;;;;;28.76;42.72;95406.03;5136187;27;1051;-57
2023/08/14 12:18:01;;;;;;;;;;;;;;;28.64;41.51;95414.50;5136208;27;1906;-57
2023/08/14 12:20:35;;;;;;;;;;;;;;;28.56;41.79;95409.53;5135787;27;1251;-57
2023/08/14 12:23:11;;;;;;;;;;;;;;;28.43;41.47;95402.56;5135571;27;1051;-56
2023/08/14 12:25:38;;;;;;;;;;;;;;;28.33;42.83;95399.78;5136124;27;988;-57
2023/08/14 12:28:04;;;;;;;;;;;;;;;28.26;42.70;95400.00;5135757;27;1051;-57
2023/08/14 12:30:30;;;;;;;;;;;;;;;28.05;44.50;95396.31;5135557;27;1051;-57
2023/08/14 12:32:57;;;;;;;;;;;;;;;28.09;42.65;95402.94;5136019;27;1059;-57
2023/08/14 12:35:23;;;;;;;;;;;;;;;28.34;42.50;95401.41;5135520;27;1032;-57
2023/08/14 12:37:49;;;;;;;;;;;;;;;28.71;42.37;95403.28;5135834;27;1980;-58
2023/08/14 12:40:15;;;;;;;;;;;;;;;28.82;41.69;95407.72;5119869;27;2490;-57
2023/08/14 12:42:41;;;;;;;;;;;;;;;28.89;42.42;95400.00;5114978;28;1199;-58
2023/08/14 12:45:07;;;;;;;;;;;;;;;28.67;41.49;95402.97;5113874;28;1653;-58
2023/08/14 12:47:33;;;;;;;;;;;;;;;28.64;43.20;95405.44;5116492;27;2774;-58
2023/08/14 12:49:59;;;;;;;;;;;;;;;28.61;42.35;95398.56;5115056;28;1064;-58
2023/08/14 12:52:25;;;;;;;;;;;;;;;28.43;42.37;95395.13;5114959;28;1049;-58
2023/08/14 12:54:51;;;;;;;;;;;;;;;28.32;43.23;95398.09;5114860;28;973;-58
2023/08/14 12:57:17;;;;;;;;;;;;;;;28.14;42.06;95402.97;5114551;28;1909;-58
2023/08/14 12:59:43;;;;;;;;;;;;;;;28.17;40.90;95399.69;5114634;28;1056;-58
2023/08/14 13:02:09;;;;;;;;;;;;;;;28.26;41.51;95407.44;5114584;28;1043;-59